Estación meteorológica de Montseny - Vallcàrquera (Vallès Oriental, Parc Natural del Montseny)

Consulta los datos en tiempo real de la estación meteorológica de Montseny - Vallcàrquera





Hora UTC 07:40
Temperatura 24.4 ºC
Humedad 67.2 %
Pluja 0.0 mm
Velocidad viento 2.3 km/h
Dirección viento ESE
Radiación solar 374.7 W/m²

Datos diarios 2026-09-01



Hora UTC (invierno +1h; verano +2h)
Temperatura (ºC) Humedad (%) Velocidad viento (km/h) Precipitación (mm) Radiación solar (W/m²)
Hora UTC Aire Humedad Vel. Dir. Vel. Max Dir. Intent. máx 5 min. Rad. Sol.
00:05 18.8 88.9 2.6 ENE 2.6 NE 0.0 0.0
00:10 18.9 88.5 1.2 N 3.2 NNE 0.0 0.0
00:15 18.8 88.6 2.6 E 5.3 ENE 0.0 0.0
00:20 18.9 88.6 2.9 ENE 4.6 ENE 0.0 0.0
00:25 18.9 88.0 2.4 NE 4.2 ENE 0.0 0.0
00:30 18.9 88.0 0.7 NNE 2.8 NE 0.0 0.0
00:35 18.9 88.6 1.2 ENE 2.8 E 0.0 0.0
00:40 18.9 88.7 1.7 NE 3.5 ENE 0.0 0.0
00:45 19.0 88.3 1.5 ENE 3.9 ENE 0.0 0.5
00:50 19.1 87.6 1.8 ENE 3.9 ENE 0.0 0.4
00:55 19.3 87.0 2.0 ENE 4.2 ENE 0.0 0.6
01:00 19.4 86.0 2.4 ENE 3.5 ENE 0.0 0.7
01:05 19.6 85.3 2.4 NE 4.2 ENE 0.0 0.6
01:10 19.8 84.8 2.6 NE 4.6 NE 0.0 0.6
01:15 19.9 84.5 1.3 NE 2.8 ENE 0.0 0.5
01:20 20.1 83.9 2.1 NE 4.2 NE 0.0 0.6
01:25 20.3 83.3 1.4 NE 2.8 NE 0.0 0.4
01:30 20.3 83.3 3.1 ENE 4.9 E 0.0 0.2
01:35 20.3 83.3 3.4 ENE 5.3 E 0.0 0.1
01:40 20.4 83.2 2.5 ENE 4.9 E 0.0 0.1
01:45 20.5 83.3 1.2 ENE 3.9 NE 0.0 0.1
01:50 20.6 83.2 0.3 S 2.5 S 0.0 0.0
01:55 20.4 83.5 0.3 WSW 2.5 WSW 0.0 0.0
02:00 20.3 84.0 0.0 NNE 0.0 ENE 0.0 0.0
02:05 20.2 84.7 0.0 ENE 0.7 ENE 0.0 0.0
02:10 20.1 85.0 0.1 E 1.4 E 0.0 0.0
02:15 20.1 85.3 1.9 E 3.9 ENE 0.0 0.0
02:20 20.3 85.0 2.5 ENE 4.2 ENE 0.0 0.3
02:25 20.5 84.7 2.3 ENE 3.9 NE 0.0 0.4
02:30 20.6 84.6 1.4 ENE 3.2 E 0.0 0.1
02:35 20.7 84.9 0.4 NE 2.1 ENE 0.0 0.1
02:40 20.8 85.0 0.1 NNW 1.1 NW 0.0 0.0
02:45 20.8 85.0 0.0 NNE 0.0 NE 0.0 0.0
02:50 20.8 85.2 0.2 NE 1.4 NE 0.0 0.0
02:55 20.8 85.3 1.0 NE 2.1 E 0.0 0.0
03:00 20.7 85.5 1.1 NE 3.5 NE 0.0 0.0
03:05 20.5 85.7 0.6 NE 2.5 NE 0.0 0.0
03:10 20.3 86.7 0.9 NNE 2.5 NNE 0.0 0.0
03:15 20.2 86.8 0.8 NNE 3.5 ENE 0.0 0.0
03:20 19.9 87.2 0.9 NE 2.1 NW 0.0 0.0
03:25 19.6 87.7 0.8 NNW 2.5 N 0.0 0.0
03:30 19.4 88.6 0.5 N 1.8 N 0.0 0.0
03:35 19.3 88.7 0.0 NW 1.1 WNW 0.0 0.0
03:40 19.1 89.1 1.0 NE 2.8 ENE 0.0 0.0
03:45 19.0 89.2 1.4 NNE 2.8 NNE 0.0 0.0
03:50 19.0 89.0 1.5 ENE 3.5 NNE 0.0 0.0
03:55 18.9 88.6 0.0 NE 0.4 NE 0.0 0.0
04:00 18.7 89.2 0.1 NNE 1.1 ENE 0.0 0.0
04:05 18.5 89.6 0.3 N 2.1 N 0.0 0.0
04:10 18.5 90.4 0.7 N 2.8 NNW 0.0 0.0
04:15 18.4 90.5 0.8 N 2.1 N 0.0 0.0
04:20 18.4 90.8 1.1 NNE 2.5 NE 0.0 0.0
04:25 18.4 90.6 1.4 NE 3.5 NE 0.0 0.0
04:30 18.4 90.1 1.8 NE 3.9 ENE 0.0 0.0
04:35 18.4 90.1 1.3 ENE 2.5 ENE 0.0 0.0
04:40 18.3 90.3 1.1 E 2.1 E 0.0 0.0
04:45 18.3 90.5 3.2 ENE 6.0 E 0.0 0.0
04:50 18.5 89.4 2.3 NE 3.9 NE 0.0 0.0
04:55 18.6 89.0 1.6 NE 4.2 ENE 0.0 0.0
05:00 18.5 89.3 1.1 ENE 2.5 ENE 0.0 0.0
05:05 18.4 90.0 2.7 ENE 4.6 NNE 0.0 0.0
05:10 18.5 89.6 1.6 ENE 3.5 NE 0.0 0.2
05:15 18.5 89.7 2.7 NE 5.3 ENE 0.0 0.9
05:20 18.5 89.3 0.7 N 2.1 NE 0.0 2.2
05:25 18.4 89.8 0.5 ENE 2.1 ENE 0.0 4.0
05:30 18.3 90.5 1.0 NNE 2.1 NE 0.0 7.1
05:35 18.3 90.6 0.5 NNE 1.8 N 0.0 10.4
05:40 18.3 90.9 1.4 NNE 3.5 ENE 0.0 14.8
05:45 18.4 90.4 0.2 NE 1.4 ENE 0.0 18.7
05:50 18.3 90.3 0.0 N 0.7 N 0.0 22.4
05:55 18.3 90.8 0.7 NE 2.5 NE 0.0 25.4
06:00 18.4 90.5 0.9 NNE 2.5 NE 0.0 27.6
06:05 18.4 90.3 0.6 NE 1.8 ENE 0.0 29.8
06:10 18.5 90.0 0.3 NNE 1.4 N 0.0 33.0
06:15 18.5 90.1 0.7 NE 2.5 ENE 0.0 35.7
06:20 18.5 90.0 1.8 ENE 3.2 NE 0.0 38.5
06:25 18.6 89.7 0.6 NNE 1.8 NNE 0.0 41.3
06:30 18.6 89.7 0.6 NE 2.5 ENE 0.0 70.7
06:35 19.1 87.7 2.1 ENE 4.2 ENE 0.0 162.3
06:40 19.9 84.2 1.8 E 3.5 ESE 0.0 175.7
06:45 20.2 82.6 2.9 ENE 4.9 E 0.0 190.7
06:50 20.3 82.2 3.0 E 5.3 ENE 0.0 208.1
06:55 20.8 80.1 1.6 ENE 4.6 ENE 0.0 225.2
07:00 21.4 77.7 2.1 E 3.9 E 0.0 227.4
07:05 21.7 77.1 1.2 SSE 2.5 E 0.0 258.8
07:10 22.1 75.6 1.6 E 3.9 ENE 0.0 272.7
07:15 22.6 73.6 1.3 E 2.8 ENE 0.0 289.4
07:20 23.2 71.6 1.5 E 3.2 ENE 0.0 308.4
07:25 23.5 70.6 1.9 E 3.5 ESE 0.0 324.0
07:30 23.7 69.7 2.0 E 3.9 E 0.0 341.0
07:35 24.1 68.5 1.2 E 4.2 E 0.0 356.7
07:40 24.4 67.2 2.3 ESE 6.4 ESE 0.0 374.7
Máxima 24.4 90.9 3.4 ENE 6.4 ESE 0.0 374.7
Mínima 18.3 67.2
Total 0.0